Marshfield, MA

2:04 PM EDT on October 01, 2016 (GMT -0400)
Blackmount / Near Pond | | Change Station

Elev 40 ft 42.07 °N, 70.69 °W | Updated 2 minutes ago

Light Rain
Light Rain
59.3 °F
Feels Like 59.3 °F
N
2.0
Wind Variable Wind from NNW
Gusts 10.0 mph

Today
High -- | Low -- °F
--% Chance of Precip.
Yesterday
High -- | Low -- °F
Precip. -- in
Pressure 30.21 in
Visibility 1.0 miles
Clouds Mostly Cloudy 500 ft
Overcast 1000 ft
Dew Point 59 °F
Humidity 97%
Rainfall 0.32 in
Snow Depth Not available.
6:40 AM 6:23 PM
New Moon, 1% visible
METAR KGHG 011755Z AUTO 05009G16KT 1SM -RA BKN005 OVC010 16/16 A3021 RMK AO2 P0002
Pressure 30.21 in
Visibility 1.0 miles
Clouds Mostly Cloudy 500 ft
Overcast 1000 ft
Dew Point 59 °F
Humidity 97%
Rainfall 0.32 in
Snow Depth Not available.
6:40 AM 6:23 PM
New Moon, 1% visible
METAR KGHG 011755Z AUTO 05009G16KT 1SM -RA BKN005 OVC010 16/16 A3021 RMK AO2 P0002

10-Day Weather Forecast

Almanac

Astronomy

Oct. 01, 2016 Rise Set
Actual Time
Civil Twilight
Nautical Twilight
Astronomical Twilight
Moon
Length of Visible Light
Length of Day
Tomorrow will be .
, % of the Moon is Illuminated

Today's Extremes

State Highs State Lows

Community

WunderPhotos

Upload Photos

1,942,974 photos uploaded!

WunderBlog® & News

Nearby

Air Quality

  Air Quality AQ Index Pollutant
Not available.

Snow Depth

Station Depth Elevation

Earthquake Activity

City Distance Mag. Time & Date
Minimum magnitude displayed is 2.5.

Coastal Water Temperatures

Place Temperature

Stations

Nearby Weather Stations

Station Location Temp. Windchill Dew Point Humidity Wind Precip. Elev Updated Type
                   

Watches & Warnings

There are currently no watches in effect.